PWSweather.com
Personal Weather Stations
Station Observations
ICAMBRID16
ChatterisGB PE16 6AY

ChatterisGB PE16 6AY

Lat: 52.45616, Lon: 0.05771

Elevation: 17

Station Type: Davis Vantage Pro 2

https://www.chatteris.biz

Latest ConditionsUpdated 4:59:01 PM GMT Monday, Sep 23, 2019
Currently Today's Max Today's Min Today's Average
Temperature 63.7°F17.6°C 69.8°F21.0°C 53.6°F12.0°C 60.5°F15.8°C
Dew Point 54.9°F12.7°C 56.5°F13.6°C 52.0°F11.1°C 54.0°F12.2°C
Winds 8.9 mph S14.3 kmh S 10.1 mph -16.3 kmh - - 6.1 mph 9.8 kmh
Wind Gusts 23.0 mph37.0 kmh 23.0 mph37.0 kmh - -
Humidity 73% 95% 56% 81%
Pressure 29.77 in1008.1 mb 29.80 in1009.1 mb 29.69 in1005.4 mb -
Hour Temp Dew Point Humidity Winds Wind Gusts Pressure Precip Precip Rate Daily Precip Total
04:59 PM 63.7°F17.6°C 54.9°F12.7°C 73% 8.9 mph S14.3 kmh S 23.0 mph37.0 kmh 29.77 in1008.1 mb 0.00 in0.0 mm 0.00 in0.0 mm 0.00 in0.0 mm
04:29 PM 64.9°F18.3°C 53.2°F11.8°C 66% 8.9 mph SSW14.3 kmh SSW 21.0 mph33.8 kmh 29.77 in1008.1 mb 0.00 in0.0 mm 0.00 in0.0 mm 0.00 in0.0 mm
03:59 PM 65.5°F18.6°C 53.4°F11.9°C 65% 10.1 mph S16.3 kmh S 21.0 mph33.8 kmh 29.77 in1008.1 mb 0.00 in0.0 mm 0.00 in0.0 mm 0.00 in0.0 mm
03:29 PM 66.7°F19.3°C 53.2°F11.8°C 62% 8.1 mph S13.0 kmh S 22.0 mph35.4 kmh 29.77 in1008.1 mb 0.00 in0.0 mm 0.00 in0.0 mm 0.00 in0.0 mm
02:59 PM 67.1°F19.5°C 52.7°F11.5°C 60% 6.9 mph SSW11.1 kmh SSW 16.1 mph25.9 kmh 29.77 in1008.1 mb 0.00 in0.0 mm 0.00 in0.0 mm 0.00 in0.0 mm
02:29 PM 69.8°F21.0°C 54.0°F12.2°C 57% 8.1 mph S13.0 kmh S 16.1 mph25.9 kmh 29.78 in1008.5 mb 0.00 in0.0 mm 0.00 in0.0 mm 0.00 in0.0 mm
01:59 PM 69.6°F20.9°C 53.2°F11.8°C 56% 8.1 mph SW13.0 kmh SW 16.1 mph25.9 kmh 29.78 in1008.5 mb 0.00 in0.0 mm 0.00 in0.0 mm 0.00 in0.0 mm
01:29 PM 67.3°F19.6°C 54.3°F12.4°C 63% 6.0 mph SW9.7 kmh SW 20.0 mph32.2 kmh 29.79 in1008.8 mb 0.00 in0.0 mm 0.00 in0.0 mm 0.00 in0.0 mm
12:59 PM 66.9°F19.4°C 53.1°F11.7°C 61% 8.9 mph SSW14.3 kmh SSW 17.0 mph27.4 kmh 29.79 in1008.8 mb 0.00 in0.0 mm 0.00 in0.0 mm 0.00 in0.0 mm
12:29 PM 66.7°F19.3°C 52.9°F11.6°C 61% 6.9 mph SW11.1 kmh SW 16.1 mph25.9 kmh 29.79 in1008.8 mb 0.00 in0.0 mm 0.00 in0.0 mm 0.00 in0.0 mm
11:59 AM 65.8°F18.8°C 52.9°F11.6°C 63% 6.9 mph WSW11.1 kmh WSW 19.0 mph30.6 kmh 29.80 in1009.1 mb 0.00 in0.0 mm 0.00 in0.0 mm 0.00 in0.0 mm
11:29 AM 65.5°F18.6°C 53.8°F12.1°C 66% 8.1 mph 13.0 kmh 16.1 mph25.9 kmh 29.80 in1009.1 mb 0.00 in0.0 mm 0.00 in0.0 mm 0.00 in0.0 mm
10:59 AM 63.9°F17.7°C 54.3°F12.4°C 71% 8.9 mph 14.3 kmh 17.0 mph27.4 kmh 29.80 in1009.1 mb 0.00 in0.0 mm 0.00 in0.0 mm 0.00 in0.0 mm
10:29 AM 62.8°F17.1°C 54.7°F12.6°C 75% 8.9 mph SSW14.3 kmh SSW 16.1 mph25.9 kmh 29.80 in1009.1 mb 0.00 in0.0 mm 0.00 in0.0 mm 0.00 in0.0 mm
09:59 AM 62.4°F16.9°C 56.1°F13.4°C 80% 8.1 mph SW13.0 kmh SW 16.1 mph25.9 kmh 29.80 in1009.1 mb 0.00 in0.0 mm 0.00 in0.0 mm 0.00 in0.0 mm
09:29 AM 61.3°F16.3°C 56.5°F13.6°C 84% 8.1 mph WSW13.0 kmh WSW 15.0 mph24.1 kmh 29.80 in1009.1 mb 0.00 in0.0 mm 0.00 in0.0 mm 0.00 in0.0 mm
08:59 AM 59.7°F15.4°C 56.1°F13.4°C 88% 10.1 mph WSW16.3 kmh WSW 16.1 mph25.9 kmh 29.80 in1009.1 mb 0.00 in0.0 mm 0.00 in0.0 mm 0.00 in0.0 mm
08:29 AM 59.2°F15.1°C 56.3°F13.5°C 90% 8.1 mph WSW13.0 kmh WSW 16.1 mph25.9 kmh 29.80 in1009.1 mb 0.00 in0.0 mm 0.00 in0.0 mm 0.00 in0.0 mm
07:59 AM 58.5°F14.7°C 56.1°F13.4°C 92% 8.1 mph WSW13.0 kmh WSW 14.1 mph22.7 kmh 29.78 in1008.5 mb 0.00 in0.0 mm 0.00 in0.0 mm 0.00 in0.0 mm
07:29 AM 57.6°F14.2°C 55.6°F13.1°C 93% 6.0 mph WSW9.7 kmh WSW 12.1 mph19.5 kmh 29.77 in1008.1 mb 0.00 in0.0 mm 0.00 in0.0 mm 0.00 in0.0 mm
06:59 AM 56.7°F13.7°C 54.7°F12.6°C 93% 2.9 mph SSW4.7 kmh SSW 9.0 mph14.5 kmh 29.77 in1008.1 mb 0.00 in0.0 mm 0.00 in0.0 mm 0.00 in0.0 mm
06:29 AM 56.7°F13.7°C 54.7°F12.6°C 93% 4.9 mph SSW7.9 kmh SSW 11.0 mph17.7 kmh 29.75 in1007.5 mb 0.00 in0.0 mm 0.00 in0.0 mm 0.00 in0.0 mm
05:59 AM 56.5°F13.6°C 54.5°F12.5°C 93% 4.0 mph SW6.4 kmh SW 8.1 mph13.0 kmh 29.75 in1007.5 mb 0.00 in0.0 mm 0.00 in0.0 mm 0.00 in0.0 mm
05:29 AM 56.1°F13.4°C 54.5°F12.5°C 94% 4.9 mph SW7.9 kmh SW 11.0 mph17.7 kmh 29.74 in1007.1 mb 0.00 in0.0 mm 0.00 in0.0 mm 0.00 in0.0 mm
04:59 AM 56.7°F13.7°C 55.0°F12.8°C 94% 4.0 mph WSW6.4 kmh WSW 9.0 mph14.5 kmh 29.73 in1006.8 mb 0.00 in0.0 mm 0.00 in0.0 mm 0.00 in0.0 mm
04:29 AM 55.8°F13.2°C 54.3°F12.4°C 95% 2.0 mph SSW3.2 kmh SSW 5.0 mph8.0 kmh 29.72 in1006.4 mb 0.00 in0.0 mm 0.00 in0.0 mm 0.00 in0.0 mm
03:59 AM 55.0°F12.8°C 53.6°F12.0°C 95% 2.9 mph SSW4.7 kmh SSW 7.0 mph11.3 kmh 29.72 in1006.4 mb 0.00 in0.0 mm 0.00 in0.0 mm 0.00 in0.0 mm
03:29 AM 54.3°F12.4°C 52.7°F11.5°C 94% 2.0 mph 3.2 kmh 6.0 mph9.7 kmh 29.72 in1006.4 mb 0.00 in0.0 mm 0.00 in0.0 mm 0.00 in0.0 mm
02:59 AM 53.8°F12.1°C 52.3°F11.3°C 95% 2.9 mph S4.7 kmh S 8.1 mph13.0 kmh 29.71 in1006.1 mb 0.00 in0.0 mm 0.00 in0.0 mm 0.00 in0.0 mm
02:29 AM 53.6°F12.0°C 52.0°F11.1°C 94% 2.9 mph SE4.7 kmh SE 8.1 mph13.0 kmh 29.70 in1005.8 mb 0.00 in0.0 mm 0.00 in0.0 mm 0.00 in0.0 mm
01:59 AM 54.1°F12.3°C 52.5°F11.4°C 94% 2.9 mph S4.7 kmh S 7.0 mph11.3 kmh 29.70 in1005.8 mb 0.00 in0.0 mm 0.00 in0.0 mm 0.00 in0.0 mm
01:29 AM 54.1°F12.3°C 52.5°F11.4°C 94% 2.9 mph S4.7 kmh S 7.0 mph11.3 kmh 29.70 in1005.8 mb 0.00 in0.0 mm 0.00 in0.0 mm 0.00 in0.0 mm
12:59 AM 54.0°F12.2°C 52.3°F11.3°C 94% 4.0 mph S6.4 kmh S 7.0 mph11.3 kmh 29.69 in1005.4 mb 0.00 in0.0 mm 0.00 in0.0 mm 0.00 in0.0 mm
12:29 AM 54.5°F12.5°C 52.9°F11.6°C 94% 2.9 mph S4.7 kmh S 8.1 mph13.0 kmh 29.69 in1005.4 mb 0.00 in0.0 mm 0.00 in0.0 mm 0.00 in0.0 mm